Weather at National City Airport [CLOSED]

Public forecast

Using degrees Fahrenheit for public forecast. Weather courtesy of forecast.io.

Closest aviation weather report (METAR) to National City Airport

Report is more than 6 hours old.

Closest report is Naval Outlying Field Imperial Beach (Ream Field), 5.1 nm (9.5 km) S.

2022/11/14 14:53 (retrieved 2 years ago)

KNRS 141453Z 08007KT 10SM FEW250 09/04 A3011 RMK AO2 SLP194 T00940044 53004

Closest aviation forecast (TAF) to National City Airport

Forecast is more than 12 hours old.

Closest forecast is San Diego International Airport, 6.7 nm (12.5 km) NW.

2023/02/22 18:42 (retrieved 1 year ago)

TAF KSAN 221739Z 2218/2324 29020G35KT P6SM VCSH SCT030 BKN040 FM221900 28020G30KT P6SM SCT030 SCT040 FM230200 28014G24KT P6SM VCSH SCT030 SCT040 FM231100 27011G18KT P6SM -SHRA SCT030 BKN040